Fangst — LK6971 — position and weather

sailwx.info

Track history (hours):
 
Tides and Currents Weather Stations Pressure Air Temp Water Temp Dewpoint Dewpoint Depression Visibility Wind Speed Wind Dir Waves Ship Positions

Oceanographic research ship Fangst (Norway)

Detailed information on ship capabilities available from University of Delaware's Ocean Information Center and ARCUS's ALIAS (Arctic Logistics Information and Support) project.

Last reported at 2018-Feb-21 03:30 UTC. Time now 2018-Feb-21 03:35 UTC.
Position N 66°11' E 012°51'.

Length 14 m; draft 3 m.

Type: Fishing. MMSI: 257076840.

Date/timePositionNaut miles runAvg speedWind from/ knotsBaromVisibWave heightAir tempDewpointWater temp
2018-Feb-21 03:30N 66°11' E 012°51'4 6.8
2018-Feb-21 02:52N 66°15' E 012°55'2 6.5
2018-Feb-21 02:30N 66°18' E 012°56'3 6.7
2018-Feb-21 02:00N 66°21' E 012°58'3 7.0
2018-Feb-21 01:30N 66°25' E 012°58'3 6.9
2018-Feb-21 01:00N 66°28' E 012°59'3 6.7
2018-Feb-21 00:29N 66°31' E 012°58'4 6.7
2018-Feb-20 23:57N 66°34' E 013°04'3 6.5
2018-Feb-20 23:30N 66°37' E 013°05'4 6.9
2018-Feb-20 22:58N 66°40' E 013°08'5 6.9
2018-Feb-20 22:18N 66°45' E 013°12'2 6.7
2018-Feb-20 22:00N 66°47' E 013°14'5 7.2
2018-Feb-20 21:20N 66°51' E 013°16'2 6.9
2018-Feb-20 20:59N 66°54' E 013°18'9 7.1
2018-Feb-20 19:39N 67°03' E 013°26'1 7.0
2018-Feb-20 19:30N 67°04' E 013°27'3 6.9
2018-Feb-20 19:00N 67°07' E 013°30'4 7.0
2018-Feb-20 18:28N 67°10' E 013°34'3 7.1
2018-Feb-20 18:00N 67°13' E 013°38'4 7.0
2018-Feb-20 17:24N 67°17' E 013°44'3 6.8
2018-Feb-20 17:00N 67°19' E 013°46'4 6.5
2018-Feb-20 16:27N 67°23' E 013°46'3 6.2
2018-Feb-20 15:59N 67°25' E 013°48'4 6.8
2018-Feb-20 15:26N 67°29' E 013°54'3 6.9
2018-Feb-20 15:00N 67°31' E 013°58'4 7.2
2018-Feb-20 14:29N 67°34' E 014°03'4 7.4
2018-Feb-20 13:57N 67°38' E 014°08'4 7.3
2018-Feb-20 13:25N 67°41' E 014°14'5 7.1
2018-Feb-20 12:43N 67°45' E 014°20'106 6.6
2018-Feb-19 20:38N 69°06' E 017°27'1 6.9
2018-Feb-19 20:28N 69°06' E 017°30'3 7.1
2018-Feb-19 20:00N 69°08' E 017°39'58 3.5
2018-Feb-19 03:09N 70°02' E 018°42'0 0.0
2018-Feb-19 03:00N 70°02' E 018°42'0 0.0
2018-Feb-19 02:30N 70°02' E 018°42'0 0.0
2018-Feb-19 02:00N 70°02' E 018°42'0 0.0
2018-Feb-19 01:24N 70°02' E 018°42'0 0.0
2018-Feb-18 20:23N 70°02' E 018°42'0 0.0
2018-Feb-18 19:31N 70°02' E 018°42'0 0.0
2018-Feb-18 19:26N 70°02' E 018°42'0 0.0
2018-Feb-18 16:22N 70°02' E 018°41'2 6.1
2018-Feb-18 16:00N 70°01' E 018°35'3 5.7
2018-Feb-18 15:26N 70°02' E 018°26'3 5.9
2018-Feb-18 15:00N 70°02' E 018°19'3 6.1
2018-Feb-18 14:30N 70°04' E 018°11'2 4.3
2018-Feb-18 14:00N 70°05' E 018°05'0 0.1
2018-Feb-18 13:30N 70°05' E 018°05'0 0.2
2018-Feb-18 13:00N 70°05' E 018°05'0 0.3
2018-Feb-18 12:31N 70°05' E 018°06'0 0.7
2018-Feb-18 12:00N 70°05' E 018°05'0 0.2
2018-Feb-18 11:30N 70°05' E 018°05'0 0.1
2018-Feb-18 11:00N 70°05' E 018°05'0 0.2
2018-Feb-18 10:30N 70°05' E 018°05'0 0.7
2018-Feb-18 10:00N 70°05' E 018°05'0 0.1
2018-Feb-18 09:30N 70°05' E 018°05'0 0.2
2018-Feb-18 09:00N 70°05' E 018°05'0 0.2
2018-Feb-18 08:30N 70°05' E 018°05'0 0.7
2018-Feb-18 08:00N 70°05' E 018°04'0 0.2
2018-Feb-18 07:30N 70°05' E 018°05'0 0.2
2018-Feb-18 07:00N 70°05' E 018°05'0 0.7
2018-Feb-18 06:30N 70°05' E 018°04'0 0.2
2018-Feb-18 05:59N 70°05' E 018°04'0 0.1
2018-Feb-18 05:29N 70°05' E 018°04'0 0.3
2018-Feb-18 05:00N 70°05' E 018°05'3 5.9
2018-Feb-18 04:30N 70°04' E 018°13'4 7.2
2018-Feb-18 04:00N 70°03' E 018°22'4 7.3
2018-Feb-18 03:27N 70°01' E 018°33'2 0.1
2018-Feb-17 14:35N 70°01' E 018°39'8 6.5
2018-Feb-17 13:21N 70°03' E 018°16'3 7.1
2018-Feb-17 12:54N 70°04' E 018°07'1 1.2
2018-Feb-17 12:22N 70°05' E 018°05'12 0.6
2018-Feb-16 14:23N 70°01' E 018°40'3 6.6
2018-Feb-16 13:59N 70°01' E 018°33'3 5.9
2018-Feb-16 13:30N 70°02' E 018°25'4 6.1
2018-Feb-16 12:53N 70°03' E 018°15'2 6.4
2018-Feb-16 12:30N 70°04' E 018°08'1 1.9
2018-Feb-16 11:57N 70°05' E 018°05'0 0.2
2018-Feb-16 11:29N 70°05' E 018°05'0 0.4
2018-Feb-16 11:00N 70°05' E 018°06'0 0.5
2018-Feb-16 10:16N 70°05' E 018°05'0 0.2
2018-Feb-16 10:00N 70°05' E 018°05'0 0.3
2018-Feb-16 09:30N 70°05' E 018°06'1 1.0
2018-Feb-16 08:58N 70°05' E 018°05'0 0.2
2018-Feb-16 08:29N 70°05' E 018°05'0 0.3
2018-Feb-16 08:00N 70°05' E 018°05'0 0.6
2018-Feb-16 07:28N 70°05' E 018°04'0 0.3
2018-Feb-16 07:00N 70°05' E 018°05'0 0.4
2018-Feb-16 06:23N 70°05' E 018°04'0 0.3
2018-Feb-16 05:00N 70°05' E 018°05'3 6.7
2018-Feb-16 04:30N 70°04' E 018°14'9 0.6
2018-Feb-15 13:38N 70°01' E 018°40'1 7.1
2018-Feb-15 13:25N 70°01' E 018°35'3 6.5
2018-Feb-15 13:00N 70°01' E 018°28'3 6.6
2018-Feb-15 12:30N 70°03' E 018°19'4 7.2
2018-Feb-15 11:57N 70°04' E 018°08'1 2.1
2018-Feb-15 11:30N 70°05' E 018°05'0 0.1
2018-Feb-15 10:22N 70°05' E 018°05'0 0.3
2018-Feb-15 09:21N 70°05' E 018°06'0 1.0
2018-Feb-15 08:55N 70°05' E 018°05'0 0.2
2018-Feb-15 08:30N 70°05' E 018°05'0 0.4
2018-Feb-15 07:53N 70°05' E 018°06'0 0.9
2018-Feb-15 07:22N 70°05' E 018°05'0 0.2
2018-Feb-15 07:00N 70°05' E 018°05'0 0.4
2018-Feb-15 06:30N 70°05' E 018°05'0 0.9
2018-Feb-15 06:00N 70°05' E 018°04'0 0.2
2018-Feb-15 05:30N 70°05' E 018°05'0 0.4
2018-Feb-15 05:00N 70°05' E 018°05'4 6.3
2018-Feb-15 04:26N 70°04' E 018°15'2 0.1
2018-Feb-14 12:36N 70°04' E 018°09'1 6.8
2018-Feb-14 12:30N 70°04' E 018°07'1 1.2
2018-Feb-14 11:50N 70°05' E 018°05'0 0.2
2018-Feb-14 11:30N 70°05' E 018°05'0 0.5
2018-Feb-14 11:00N 70°05' E 018°06'0 0.7
2018-Feb-14 10:30N 70°05' E 018°05'0 0.3
2018-Feb-14 09:50N 70°05' E 018°05'0 0.9
2018-Feb-14 09:30N 70°05' E 018°06'0 0.7
2018-Feb-14 08:58N 70°05' E 018°05'0 0.2
2018-Feb-14 08:29N 70°05' E 018°05'0 0.4
2018-Feb-14 08:00N 70°05' E 018°06'0 0.8
2018-Feb-14 07:30N 70°05' E 018°04'0 0.3
2018-Feb-14 07:00N 70°05' E 018°05'0 0.6
2018-Feb-14 06:30N 70°05' E 018°04'0 0.2
2018-Feb-14 05:53N 70°05' E 018°04'1 0.0
2018-Feb-13 10:10N 70°05' E 018°06'0 1.6
2018-Feb-13 09:59N 70°05' E 018°05'0 0.1
2018-Feb-13 09:23N 70°05' E 018°05'0 0.2
2018-Feb-13 08:59N 70°05' E 018°05'0 0.5
2018-Feb-13 08:30N 70°05' E 018°06'1 1.0
2018-Feb-13 08:00N 70°05' E 018°05'0 0.3
2018-Feb-13 07:29N 70°05' E 018°05'0 0.7
2018-Feb-13 07:00N 70°05' E 018°04'12 3.3
2018-Feb-13 03:26N 70°01' E 018°37'11 0.7
2018-Feb-12 10:16N 70°05' E 018°06'1 2.4
2018-Feb-12 09:58N 70°05' E 018°06'0 0.5
2018-Feb-12 09:28N 70°05' E 018°05'0 0.4
2018-Feb-12 09:00N 70°05' E 018°06'0 0.6
2018-Feb-12 08:29N 70°05' E 018°05'0 0.2
2018-Feb-12 05:28N 70°05' E 018°05'0 0.5
2018-Feb-12 04:54N 70°05' E 018°06'13 0.9
2018-Feb-11 14:28N 70°01' E 018°41'4 6.3
2018-Feb-11 13:48N 70°02' E 018°28'2 6.5
2018-Feb-11 13:27N 70°03' E 018°22'3 6.3
2018-Feb-11 13:00N 70°04' E 018°15'3 6.4
2018-Feb-11 12:29N 70°05' E 018°06'0 1.0
2018-Feb-11 12:00N 70°05' E 018°05'  
Track history (hours):
 
Tides and Currents Weather Stations Pressure Air Temp Water Temp Dewpoint Dewpoint Depression Visibility Wind Speed Wind Dir Waves Ship Positions

Oceanographic research ship Fangst (Norway)

Detailed information on ship capabilities available from University of Delaware's Ocean Information Center and ARCUS's ALIAS (Arctic Logistics Information and Support) project.

Last reported at 2018-Feb-21 03:30 UTC. Time now 2018-Feb-21 03:35 UTC.
Position N 66°11' E 012°51'.

Length 14 m; draft 3 m.

Type: Fishing. MMSI: 257076840.

Date/timePositionNaut miles runAvg speedWind from/ knotsBaromVisibWave heightAir tempDewpointWater temp
2018-Feb-21 03:30N 66°11' E 012°51'4 6.8
2018-Feb-21 02:52N 66°15' E 012°55'2 6.5
2018-Feb-21 02:30N 66°18' E 012°56'3 6.7
2018-Feb-21 02:00N 66°21' E 012°58'3 7.0
2018-Feb-21 01:30N 66°25' E 012°58'3 6.9
2018-Feb-21 01:00N 66°28' E 012°59'3 6.7
2018-Feb-21 00:29N 66°31' E 012°58'4 6.7
2018-Feb-20 23:57N 66°34' E 013°04'3 6.5
2018-Feb-20 23:30N 66°37' E 013°05'4 6.9
2018-Feb-20 22:58N 66°40' E 013°08'5 6.9
2018-Feb-20 22:18N 66°45' E 013°12'2 6.7
2018-Feb-20 22:00N 66°47' E 013°14'5 7.2
2018-Feb-20 21:20N 66°51' E 013°16'2 6.9
2018-Feb-20 20:59N 66°54' E 013°18'9 7.1
2018-Feb-20 19:39N 67°03' E 013°26'1 7.0
2018-Feb-20 19:30N 67°04' E 013°27'3 6.9
2018-Feb-20 19:00N 67°07' E 013°30'4 7.0
2018-Feb-20 18:28N 67°10' E 013°34'3 7.1
2018-Feb-20 18:00N 67°13' E 013°38'4 7.0
2018-Feb-20 17:24N 67°17' E 013°44'3 6.8
2018-Feb-20 17:00N 67°19' E 013°46'4 6.5
2018-Feb-20 16:27N 67°23' E 013°46'3 6.2
2018-Feb-20 15:59N 67°25' E 013°48'4 6.8
2018-Feb-20 15:26N 67°29' E 013°54'3 6.9
2018-Feb-20 15:00N 67°31' E 013°58'4 7.2
2018-Feb-20 14:29N 67°34' E 014°03'4 7.4
2018-Feb-20 13:57N 67°38' E 014°08'4 7.3
2018-Feb-20 13:25N 67°41' E 014°14'5 7.1
2018-Feb-20 12:43N 67°45' E 014°20'106 6.6
2018-Feb-19 20:38N 69°06' E 017°27'1 6.9
2018-Feb-19 20:28N 69°06' E 017°30'3 7.1
2018-Feb-19 20:00N 69°08' E 017°39'58 3.5
2018-Feb-19 03:09N 70°02' E 018°42'0 0.0
2018-Feb-19 03:00N 70°02' E 018°42'0 0.0
2018-Feb-19 02:30N 70°02' E 018°42'0 0.0
2018-Feb-19 02:00N 70°02' E 018°42'0 0.0
2018-Feb-19 01:24N 70°02' E 018°42'0 0.0
2018-Feb-18 20:23N 70°02' E 018°42'0 0.0
2018-Feb-18 19:31N 70°02' E 018°42'0 0.0
2018-Feb-18 19:26N 70°02' E 018°42'0 0.0
2018-Feb-18 16:22N 70°02' E 018°41'2 6.1
2018-Feb-18 16:00N 70°01' E 018°35'3 5.7
2018-Feb-18 15:26N 70°02' E 018°26'3 5.9
2018-Feb-18 15:00N 70°02' E 018°19'3 6.1
2018-Feb-18 14:30N 70°04' E 018°11'2 4.3
2018-Feb-18 14:00N 70°05' E 018°05'0 0.1
2018-Feb-18 13:30N 70°05' E 018°05'0 0.2
2018-Feb-18 13:00N 70°05' E 018°05'0 0.3
2018-Feb-18 12:31N 70°05' E 018°06'0 0.7
2018-Feb-18 12:00N 70°05' E 018°05'0 0.2
2018-Feb-18 11:30N 70°05' E 018°05'0 0.1
2018-Feb-18 11:00N 70°05' E 018°05'0 0.2
2018-Feb-18 10:30N 70°05' E 018°05'0 0.7
2018-Feb-18 10:00N 70°05' E 018°05'0 0.1
2018-Feb-18 09:30N 70°05' E 018°05'0 0.2
2018-Feb-18 09:00N 70°05' E 018°05'0 0.2
2018-Feb-18 08:30N 70°05' E 018°05'0 0.7
2018-Feb-18 08:00N 70°05' E 018°04'0 0.2
2018-Feb-18 07:30N 70°05' E 018°05'0 0.2
2018-Feb-18 07:00N 70°05' E 018°05'0 0.7
2018-Feb-18 06:30N 70°05' E 018°04'0 0.2
2018-Feb-18 05:59N 70°05' E 018°04'0 0.1
2018-Feb-18 05:29N 70°05' E 018°04'0 0.3
2018-Feb-18 05:00N 70°05' E 018°05'3 5.9
2018-Feb-18 04:30N 70°04' E 018°13'4 7.2
2018-Feb-18 04:00N 70°03' E 018°22'4 7.3
2018-Feb-18 03:27N 70°01' E 018°33'2 0.1
2018-Feb-17 14:35N 70°01' E 018°39'8 6.5
2018-Feb-17 13:21N 70°03' E 018°16'3 7.1
2018-Feb-17 12:54N 70°04' E 018°07'1 1.2
2018-Feb-17 12:22N 70°05' E 018°05'12 0.6
2018-Feb-16 14:23N 70°01' E 018°40'3 6.6
2018-Feb-16 13:59N 70°01' E 018°33'3 5.9
2018-Feb-16 13:30N 70°02' E 018°25'4 6.1
2018-Feb-16 12:53N 70°03' E 018°15'2 6.4
2018-Feb-16 12:30N 70°04' E 018°08'1 1.9
2018-Feb-16 11:57N 70°05' E 018°05'0 0.2
2018-Feb-16 11:29N 70°05' E 018°05'0 0.4
2018-Feb-16 11:00N 70°05' E 018°06'0 0.5
2018-Feb-16 10:16N 70°05' E 018°05'0 0.2
2018-Feb-16 10:00N 70°05' E 018°05'0 0.3
2018-Feb-16 09:30N 70°05' E 018°06'1 1.0
2018-Feb-16 08:58N 70°05' E 018°05'0 0.2
2018-Feb-16 08:29N 70°05' E 018°05'0 0.3
2018-Feb-16 08:00N 70°05' E 018°05'0 0.6
2018-Feb-16 07:28N 70°05' E 018°04'0 0.3
2018-Feb-16 07:00N 70°05' E 018°05'0 0.4
2018-Feb-16 06:23N 70°05' E 018°04'0 0.3
2018-Feb-16 05:00N 70°05' E 018°05'3 6.7
2018-Feb-16 04:30N 70°04' E 018°14'9 0.6
2018-Feb-15 13:38N 70°01' E 018°40'1 7.1
2018-Feb-15 13:25N 70°01' E 018°35'3 6.5
2018-Feb-15 13:00N 70°01' E 018°28'3 6.6
2018-Feb-15 12:30N 70°03' E 018°19'4 7.2
2018-Feb-15 11:57N 70°04' E 018°08'1 2.1
2018-Feb-15 11:30N 70°05' E 018°05'0 0.1
2018-Feb-15 10:22N 70°05' E 018°05'0 0.3
2018-Feb-15 09:21N 70°05' E 018°06'0 1.0
2018-Feb-15 08:55N 70°05' E 018°05'0 0.2
2018-Feb-15 08:30N 70°05' E 018°05'0 0.4
2018-Feb-15 07:53N 70°05' E 018°06'0 0.9
2018-Feb-15 07:22N 70°05' E 018°05'0 0.2
2018-Feb-15 07:00N 70°05' E 018°05'0 0.4
2018-Feb-15 06:30N 70°05' E 018°05'0 0.9
2018-Feb-15 06:00N 70°05' E 018°04'0 0.2
2018-Feb-15 05:30N 70°05' E 018°05'0 0.4
2018-Feb-15 05:00N 70°05' E 018°05'4 6.3
2018-Feb-15 04:26N 70°04' E 018°15'2 0.1
2018-Feb-14 12:36N 70°04' E 018°09'1 6.8
2018-Feb-14 12:30N 70°04' E 018°07'1 1.2
2018-Feb-14 11:50N 70°05' E 018°05'0 0.2
2018-Feb-14 11:30N 70°05' E 018°05'0 0.5
2018-Feb-14 11:00N 70°05' E 018°06'0 0.7
2018-Feb-14 10:30N 70°05' E 018°05'0 0.3
2018-Feb-14 09:50N 70°05' E 018°05'0 0.9
2018-Feb-14 09:30N 70°05' E 018°06'0 0.7
2018-Feb-14 08:58N 70°05' E 018°05'0 0.2
2018-Feb-14 08:29N 70°05' E 018°05'0 0.4
2018-Feb-14 08:00N 70°05' E 018°06'0 0.8
2018-Feb-14 07:30N 70°05' E 018°04'0 0.3
2018-Feb-14 07:00N 70°05' E 018°05'0 0.6
2018-Feb-14 06:30N 70°05' E 018°04'0 0.2
2018-Feb-14 05:53N 70°05' E 018°04'1 0.0
2018-Feb-13 10:10N 70°05' E 018°06'0 1.6
2018-Feb-13 09:59N 70°05' E 018°05'0 0.1
2018-Feb-13 09:23N 70°05' E 018°05'0 0.2
2018-Feb-13 08:59N 70°05' E 018°05'0 0.5
2018-Feb-13 08:30N 70°05' E 018°06'1 1.0
2018-Feb-13 08:00N 70°05' E 018°05'0 0.3
2018-Feb-13 07:29N 70°05' E 018°05'0 0.7
2018-Feb-13 07:00N 70°05' E 018°04'12 3.3
2018-Feb-13 03:26N 70°01' E 018°37'11 0.7
2018-Feb-12 10:16N 70°05' E 018°06'1 2.4
2018-Feb-12 09:58N 70°05' E 018°06'0 0.5
2018-Feb-12 09:28N 70°05' E 018°05'0 0.4
2018-Feb-12 09:00N 70°05' E 018°06'0 0.6
2018-Feb-12 08:29N 70°05' E 018°05'0 0.2
2018-Feb-12 05:28N 70°05' E 018°05'0 0.5
2018-Feb-12 04:54N 70°05' E 018°06'13 0.9
2018-Feb-11 14:28N 70°01' E 018°41'4 6.3
2018-Feb-11 13:48N 70°02' E 018°28'2 6.5
2018-Feb-11 13:27N 70°03' E 018°22'3 6.3
2018-Feb-11 13:00N 70°04' E 018°15'3 6.4
2018-Feb-11 12:29N 70°05' E 018°06'0 1.0
2018-Feb-11 12:00N 70°05' E 018°05'  

Dump ship's entire track history